Time;durP1;ratioP1;P1;durP2;ratioP2;P2;SDS_P1;SDS_P2;PMS_P1;PMS_P2;Temp;Humidity;BMP_temperature;BMP_pressure;BME280_temperature;BME280_humidity;BME280_pressure;Samples;Min_cycle;Max_cycle;Signal;HPM_P1;HPM_P2
2024/01/12 00:01:54;;;;;;;;;0.00;0.00;;;;;1.46;100.00;103118.69;6184026;22;45351;-91
2024/01/12 00:04:19;;;;;;;;;0.00;0.00;;;;;1.50;100.00;103115.44;6183427;22;45343;-93
2024/01/12 00:06:46;;;;;;;;;0.00;0.00;;;;;1.53;100.00;103118.16;6183108;22;49693;-92
2024/01/12 00:09:11;;;;;;;;;0.00;0.00;;;;;1.54;100.00;103106.19;6183760;22;46037;-92
2024/01/12 00:11:37;;;;;;;;;0.00;0.00;;;;;1.54;100.00;103112.22;6158240;22;45260;-92
2024/01/12 00:14:02;;;;;;;;;0.00;0.00;;;;;1.57;100.00;103118.31;6157675;22;47014;-91
2024/01/12 00:16:27;;;;;;;;;0.00;0.00;;;;;1.60;100.00;103116.78;6183023;22;45384;-92
2024/01/12 00:18:53;;;;;;;;;0.00;0.00;;;;;1.56;100.00;103117.44;6183468;22;45203;-92
2024/01/12 00:21:19;;;;;;;;;0.00;0.00;;;;;1.60;100.00;103126.13;6182412;22;51766;-91
2024/01/12 00:23:44;;;;;;;;;0.00;0.00;;;;;1.60;100.00;103127.03;6208692;22;48363;-91
2024/01/12 00:26:10;;;;;;;;;0.00;0.00;;;;;1.57;100.00;103124.31;6289367;22;58797;-91
2024/01/12 00:28:35;;;;;;;;;0.00;0.00;;;;;1.58;100.00;103122.63;6181598;22;68797;-92
2024/01/12 00:31:00;;;;;;;;;0.00;0.00;;;;;1.61;100.00;103127.91;6182682;22;45196;-92
2024/01/12 00:33:26;;;;;;;;;0.00;0.00;;;;;1.61;100.00;103123.66;6157694;22;59962;-91
2024/01/12 00:35:51;;;;;;;;;0.00;0.00;;;;;1.66;100.00;103131.56;6182244;22;59429;-92
2024/01/12 00:38:16;;;;;;;;;0.00;0.00;;;;;1.67;100.00;103123.03;6181195;22;72460;-91
2024/01/12 00:40:42;;;;;;;;;0.00;0.00;;;;;1.70;100.00;103131.78;6182782;22;45200;-91
2024/01/12 00:43:07;;;;;;;;;0.00;0.00;;;;;1.72;100.00;103131.84;6181502;22;61396;-92
2024/01/12 00:45:33;;;;;;;;;0.00;0.00;;;;;1.76;100.00;103133.75;6208877;22;45239;-91
2024/01/12 00:47:58;;;;;;;;;0.00;0.00;;;;;1.80;100.00;103124.50;6157696;22;46929;-91
2024/01/12 00:50:24;;;;;;;;;0.00;0.00;;;;;1.87;100.00;103129.09;6181554;22;72020;-91
2024/01/12 00:52:49;;;;;;;;;0.00;0.00;;;;;1.90;100.00;103124.13;6181392;22;62265;-92
2024/01/12 00:55:14;;;;;;;;;0.00;0.00;;;;;1.92;100.00;103123.34;6181938;22;64966;-91
2024/01/12 00:57:40;;;;;;;;;0.00;0.00;;;;;1.94;100.00;103111.47;6182310;22;45385;-91
2024/01/12 01:00:06;;;;;;;;;0.00;0.00;;;;;2.00;100.00;103112.56;6156856;22;59647;-91
2024/01/12 01:02:31;;;;;;;;;0.00;0.00;;;;;2.05;100.00;103113.63;6209160;22;45332;-91
2024/01/12 01:04:57;;;;;;;;;0.00;0.00;;;;;2.06;100.00;103107.66;6156778;22;52911;-92
2024/01/12 01:07:22;;;;;;;;;0.00;0.00;;;;;2.12;100.00;103100.25;6156364;22;64918;-92
2024/01/12 01:09:48;;;;;;;;;0.00;0.00;;;;;2.14;100.00;103098.63;6185627;22;45235;-91
2024/01/12 01:12:13;;;;;;;;;0.00;0.00;;;;;2.17;100.00;103100.44;6156545;22;61380;-91
2024/01/12 01:14:38;;;;;;;;;0.00;0.00;;;;;2.15;100.00;103090.09;6182364;22;52378;-92
2024/01/12 01:17:04;;;;;;;;;0.00;0.00;;;;;2.19;100.00;103091.09;6181674;22;66282;-91
2024/01/12 01:19:29;;;;;;;;;0.00;0.00;;;;;2.21;100.00;103082.66;6182501;22;51514;-91
2024/01/12 01:21:54;;;;;;;;;0.00;0.00;;;;;2.22;100.00;103069.00;6182781;22;45221;-91
2024/01/12 01:24:19;;;;;;;;;0.00;0.00;;;;;2.28;100.00;103078.66;6156578;22;57405;-91
2024/01/12 01:26:45;;;;;;;;;0.00;0.00;;;;;2.28;100.00;103074.38;6181745;22;48709;-91
2024/01/12 01:29:10;;;;;;;;;0.00;0.00;;;;;2.32;100.00;103075.41;6181150;22;68328;-91
2024/01/12 01:31:35;;;;;;;;;3.00;3.00;;;;;2.36;100.00;103079.88;6156468;22;71364;-93
2024/01/12 01:34:01;;;;;;;;;0.00;0.00;;;;;2.44;100.00;103083.63;6156504;22;71896;-91
2024/01/12 01:36:26;;;;;;;;;0.00;0.00;;;;;2.53;100.00;103083.16;6182270;22;45485;-91
2024/01/12 01:38:52;;;;;;;;;0.00;0.00;;;;;2.59;100.00;103091.13;6208053;22;68663;-91
2024/01/12 01:41:17;;;;;;;;;0.00;0.00;;;;;2.67;100.00;103099.16;6181397;22;51927;-91
2024/01/12 01:43:42;;;;;;;;;0.00;0.00;;;;;2.74;100.00;103097.72;6207912;22;45249;-91
2024/01/12 01:46:08;;;;;;;;;0.00;0.00;;;;;2.78;100.00;103089.31;6181393;22;74309;-91
2024/01/12 01:48:33;;;;;;;;;0.00;0.00;;;;;2.83;100.00;103091.25;6180832;22;69224;-91
2024/01/12 01:50:59;;;;;;;;;0.00;0.00;;;;;2.89;100.00;103088.91;6182159;22;45321;-91
2024/01/12 01:53:24;;;;;;;;;0.00;0.00;;;;;2.93;100.00;103086.47;6156641;22;54167;-91
2024/01/12 01:55:50;;;;;;;;;0.00;0.00;;;;;2.99;100.00;103090.19;6155579;22;71885;-91
2024/01/12 01:58:16;;;;;;;;;0.00;0.00;;;;;3.04;100.00;103093.81;6181475;22;69073;-90
2024/01/12 02:00:41;;;;;;;;;0.00;0.00;;;;;3.13;100.00;103089.84;6181051;22;61849;-90
2024/01/12 02:03:06;;;;;;;;;0.00;0.00;;;;;3.16;100.00;103079.66;6156335;23;64517;-90
2024/01/12 02:05:34;;;;;;;;;0.00;0.00;;;;;3.18;100.00;103071.19;6180849;23;62456;-91
2024/01/12 02:08:02;;;;;;;;;0.00;0.00;;;;;3.25;100.00;103080.00;6157022;23;45984;-91
2024/01/12 02:10:28;;;;;;;;;0.00;0.00;;;;;3.28;100.00;103075.00;6181718;22;45314;-90
2024/01/12 02:12:53;;;;;;;;;0.00;0.00;;;;;3.29;100.00;103075.06;6181292;23;66779;-91
2024/01/12 02:15:19;;;;;;;;;0.00;0.00;;;;;3.34;100.00;103079.50;6157330;22;46892;-90
2024/01/12 02:17:44;;;;;;;;;0.00;0.00;;;;;3.37;100.00;103079.63;6159437;22;45543;-90
2024/01/12 02:20:10;;;;;;;;;0.00;0.00;;;;;3.37;100.00;103069.34;6183700;22;54445;-90
2024/01/12 02:22:36;;;;;;;;;0.00;0.00;;;;;3.40;100.00;103070.34;6210755;22;45308;-90
2024/01/12 02:25:01;;;;;;;;;0.00;0.00;;;;;3.40;100.00;103061.72;6183928;22;46124;-90
2024/01/12 02:27:27;;;;;;;;;0.00;0.00;;;;;3.43;100.00;103061.84;6210792;22;45250;-90
2024/01/12 02:29:52;;;;;;;;;0.00;0.00;;;;;3.44;100.00;103067.03;6160126;22;45320;-90
2024/01/12 02:32:18;;;;;;;;;0.00;0.00;;;;;3.43;100.00;103066.97;6184058;22;56330;-89
2024/01/12 02:34:43;;;;;;;;;0.00;0.00;;;;;3.39;100.00;103058.25;6183068;22;64494;-90
2024/01/12 02:37:08;;;;;;;;;0.00;0.00;;;;;3.39;100.00;103062.53;6182934;22;62803;-90
2024/01/12 02:39:34;;;;;;;;;0.00;0.00;;;;;3.39;100.00;103066.00;6184101;22;45158;-90
2024/01/12 02:41:59;;;;;;;;;0.00;0.00;;;;;3.40;100.00;103065.19;6183743;22;45215;-91
2024/01/12 02:44:25;;;;;;;;;0.00;0.00;;;;;3.36;100.00;103065.00;6183689;22;45537;-90
2024/01/12 02:46:50;;;;;;;;;0.00;0.00;;;;;3.39;100.00;103070.28;6210567;22;45181;-90
2024/01/12 02:49:15;;;;;;;;;0.00;0.00;;;;;3.38;100.00;103061.69;6184825;22;45462;-90
2024/01/12 02:51:41;;;;;;;;;0.00;0.00;;;;;3.39;100.00;103070.28;6158891;22;59752;-90
2024/01/12 02:54:06;;;;;;;;;0.00;0.00;;;;;3.63;100.00;103068.59;6208465;22;76794;-90
2024/01/12 02:56:31;;;;;;;;;0.00;0.00;;;;;3.73;100.00;103066.38;6183324;22;45259;-89
2024/01/12 02:58:57;;;;;;;;;0.00;0.00;;;;;3.76;100.00;103051.91;6210263;22;54733;-90
2024/01/12 03:01:22;;;;;;;;;0.00;0.00;;;;;3.78;100.00;103060.56;6183126;22;64893;-90
2024/01/12 03:03:47;;;;;;;;;0.00;0.00;;;;;3.81;100.00;103062.41;6157184;22;75881;-90
2024/01/12 03:06:13;;;;;;;;;0.00;0.00;;;;;3.82;100.00;103069.28;6183668;22;45273;-91
2024/01/12 03:08:38;;;;;;;;;0.00;0.00;;;;;3.71;100.00;103062.88;6209166;22;54651;-91
2024/01/12 03:11:03;;;;;;;;;0.00;0.00;;;;;3.70;100.00;103056.84;6182993;22;68967;-90
2024/01/12 03:13:29;;;;;;;;;0.00;0.00;;;;;3.78;100.00;103054.53;6156624;22;72096;-88
2024/01/12 03:15:54;;;;;;;;;0.00;0.00;;;;;3.79;100.00;103054.59;6158693;22;45602;-90
2024/01/12 03:18:19;;;;;;;;;0.00;0.00;;;;;3.82;100.00;103056.41;6209204;22;59695;-91
2024/01/12 03:20:45;;;;;;;;;0.00;0.00;;;;;3.82;100.00;103046.09;6158517;22;45207;-90
2024/01/12 03:23:10;;;;;;;;;0.00;0.00;;;;;3.80;100.00;103050.31;6156477;22;69191;-90
2024/01/12 03:25:35;;;;;;;;;7.00;7.00;;;;;3.79;100.00;103049.44;6182421;22;58478;-90
2024/01/12 03:28:01;;;;;;;;;0.00;0.00;;;;;3.77;100.00;103051.09;6183628;22;45290;-91
2024/01/12 03:30:26;;;;;;;;;0.00;0.00;;;;;3.77;100.00;103053.69;6209627;22;49383;-91
2024/01/12 03:32:51;;;;;;;;;0.00;0.00;;;;;3.79;100.00;103054.59;6209541;22;48153;-91
2024/01/12 03:35:17;;;;;;;;;0.00;0.00;;;;;3.81;100.00;103052.97;6209209;22;73251;-90
2024/01/12 03:37:42;;;;;;;;;0.00;0.00;;;;;3.81;100.00;103047.81;6209589;22;45687;-90
2024/01/12 03:40:08;;;;;;;;;1.00;1.00;;;;;3.84;100.00;103045.31;6183058;22;70322;-90
2024/01/12 03:42:33;;;;;;;;;0.00;0.00;;;;;3.91;100.00;103050.72;6209785;22;45969;-90
2024/01/12 03:44:58;;;;;;;;;0.25;0.25;;;;;3.94;100.00;103050.81;6157572;22;45227;-90
2024/01/12 03:47:24;;;;;;;;;0.00;0.00;;;;;3.98;100.00;103035.50;6184013;22;45185;-90
2024/01/12 03:49:49;;;;;;;;;0.00;0.00;;;;;4.03;100.00;103039.13;6209547;22;48875;-90
2024/01/12 03:52:14;;;;;;;;;0.00;0.00;;;;;4.07;100.00;103037.53;6181729;22;65020;-89
2024/01/12 03:54:40;;;;;;;;;0.00;0.00;;;;;4.07;100.00;103025.53;6182367;22;55253;-90
2024/01/12 03:57:05;;;;;;;;;0.00;0.00;;;;;4.12;100.00;103024.81;6209631;22;64429;-90
2024/01/12 03:59:30;;;;;;;;;0.00;0.00;;;;;4.13;100.00;103021.41;6209509;22;45619;-90
2024/01/12 04:01:56;;;;;;;;;1.67;1.67;;;;;4.17;100.00;103028.44;6156927;22;71158;-90
2024/01/12 04:04:21;;;;;;;;;0.00;0.00;;;;;4.18;100.00;103027.59;6182763;22;45200;-91
2024/01/12 04:06:47;;;;;;;;;0.00;0.00;;;;;4.20;100.00;103026.81;6208189;22;60670;-91
2024/01/12 04:09:13;;;;;;;;;0.00;0.00;;;;;4.05;100.00;103018.59;6183165;22;45494;-91
2024/01/12 04:11:39;;;;;;;;;0.00;0.00;;;;;4.09;100.00;103033.31;6158047;22;47090;-90
2024/01/12 04:14:04;;;;;;;;;0.00;0.00;;;;;4.11;100.00;103020.50;6182907;22;45663;-91
2024/01/12 04:16:29;;;;;;;;;0.00;0.00;;;;;4.12;100.00;103025.66;6183242;22;45271;-90
2024/01/12 04:18:55;;;;;;;;;1.00;1.00;;;;;4.11;100.00;103028.22;6209127;22;45240;-90
2024/01/12 04:21:20;;;;;;;;;0.00;0.00;;;;;4.12;100.00;103024.81;6209708;22;46481;-90
2024/01/12 04:23:46;;;;;;;;;0.00;0.00;;;;;4.20;100.00;103023.38;6157098;22;63598;-90
2024/01/12 04:26:11;;;;;;;;;1.00;0.00;;;;;4.20;100.00;103021.69;6181828;22;68683;-90
2024/01/12 04:28:37;;;;;;;;;6.00;6.00;;;;;4.32;100.00;103028.94;6182337;22;67169;-91
2024/01/12 04:31:03;;;;;;;;;0.00;0.00;;;;;4.24;100.00;103025.25;6209761;22;45357;-91
2024/01/12 04:33:30;;;;;;;;;0.00;0.00;;;;;4.23;100.00;103026.03;6182372;22;45329;-90
2024/01/12 04:35:55;;;;;;;;;0.00;0.00;;;;;4.23;100.00;103028.63;6182451;22;45310;-90
2024/01/12 04:38:20;;;;;;;;;0.00;0.00;;;;;4.24;100.00;103025.25;6156796;22;66034;-90
2024/01/12 04:40:46;;;;;;;;;0.00;0.00;;;;;4.27;100.00;103027.91;6289016;22;48195;-90
2024/01/12 04:43:11;;;;;;;;;0.00;0.00;;;;;4.31;100.00;103023.72;6156050;22;71698;-90
2024/01/12 04:45:36;;;;;;;;;0.00;0.00;;;;;4.32;100.00;103023.78;6156604;22;65154;-90
2024/01/12 04:48:02;;;;;;;;;0.00;0.00;;;;;4.35;100.00;103025.59;6181634;22;66964;-90
2024/01/12 04:50:27;;;;;;;;;0.00;0.00;;;;;4.34;100.00;103018.69;6208695;22;47059;-91
2024/01/12 04:52:54;;;;;;;;;0.00;0.00;;;;;4.35;100.00;103021.31;6156637;22;60406;-89
2024/01/12 04:55:19;;;;;;;;;0.00;0.00;;;;;4.37;100.00;103024.81;6158238;22;45305;-90
2024/01/12 04:57:45;;;;;;;;;0.00;0.00;;;;;4.41;100.00;103018.94;6180988;22;68018;-91
2024/01/12 05:00:10;;;;;;;;;0.00;0.00;;;;;4.42;100.00;103023.28;6181957;22;46946;-91
2024/01/12 05:02:36;;;;;;;;;0.00;0.00;;;;;4.43;100.00;103018.97;6157096;22;45267;-90
2024/01/12 05:05:04;;;;;;;;;0.00;0.00;;;;;4.42;100.00;103014.63;6182565;22;46237;-91
2024/01/12 05:07:29;;;;;;;;;0.00;0.00;;;;;4.41;100.00;103015.47;6209181;22;45340;-91
2024/01/12 05:09:55;;;;;;;;;0.00;0.00;;;;;4.44;100.00;103019.03;6182322;22;45609;-90
2024/01/12 05:12:21;;;;;;;;;0.00;0.00;;;;;4.44;100.00;103018.16;6182109;22;45234;-90
2024/01/12 05:14:46;;;;;;;;;0.00;0.00;;;;;4.45;100.00;103013.03;6157581;22;45177;-91
2024/01/12 05:17:11;;;;;;;;;0.00;0.00;;;;;4.46;100.00;103014.81;6155477;22;70086;-90
2024/01/12 05:19:37;;;;;;;;;3.00;0.00;;;;;4.47;100.00;103020.84;6182479;22;48657;-90
2024/01/12 05:22:02;;;;;;;;;0.00;0.00;;;;;4.47;100.00;103011.38;6155966;22;72831;-91
2024/01/12 05:24:27;;;;;;;;;0.00;0.00;;;;;4.51;100.00;103006.34;6182576;22;45285;-90
2024/01/12 05:26:53;;;;;;;;;0.00;0.00;;;;;4.52;100.00;103015.84;6156293;22;69114;-91
2024/01/12 05:29:18;;;;;;;;;0.00;0.00;;;;;4.50;100.00;103000.31;6155779;22;75830;-90
2024/01/12 05:31:44;;;;;;;;;2.25;2.25;;;;;4.52;100.00;103003.81;6181670;22;45320;-90
2024/01/12 05:34:09;;;;;;;;;0.00;0.00;;;;;4.53;100.00;103003.00;6182117;22;45445;-90
2024/01/12 05:36:35;;;;;;;;;0.00;0.00;;;;;4.55;100.00;103008.19;6182858;22;45264;-90
2024/01/12 05:39:00;;;;;;;;;0.00;0.00;;;;;4.65;100.00;103005.09;6181767;22;52472;-90
2024/01/12 05:41:26;;;;;;;;;0.00;0.00;;;;;4.59;100.00;103010.06;6183181;22;45306;-90
2024/01/12 05:43:51;;;;;;;;;0.50;0.50;;;;;4.61;100.00;103009.28;6208530;22;45269;-89
2024/01/12 05:46:19;;;;;;;;;0.00;0.00;;;;;4.59;100.00;103003.19;6182092;22;45642;-91
2024/01/12 05:48:44;;;;;;;;;0.00;0.00;;;;;4.59;100.00;103007.47;6182847;22;45355;-91
2024/01/12 05:51:12;;;;;;;;;0.00;0.00;;;;;4.61;100.00;103005.81;6157297;22;47231;-90
2024/01/12 05:53:37;;;;;;;;;3.00;3.00;;;;;4.61;100.00;103011.84;6157382;22;45271;-90
2024/01/12 05:56:02;;;;;;;;;0.00;0.00;;;;;4.62;100.00;103011.03;6156963;22;67403;-90
2024/01/12 05:58:29;;;;;;;;;0.00;0.00;;;;;4.62;100.00;103007.56;6182466;22;47760;-90
2024/01/12 06:00:55;;;;;;;;;0.00;0.00;;;;;4.77;100.00;103007.16;6182027;22;45260;-90
2024/01/12 06:03:20;;;;;;;;;0.00;0.00;;;;;4.80;100.00;103010.72;6209365;22;45229;-90
2024/01/12 06:05:48;;;;;;;;;0.00;0.00;;;;;4.85;100.00;103011.75;6156181;23;70900;-91
2024/01/12 06:08:14;;;;;;;;;0.50;0.00;;;;;4.85;100.00;103010.88;6157729;22;48810;-91
2024/01/12 06:10:39;;;;;;;;;0.00;0.00;;;;;4.76;100.00;103015.75;6157064;23;45182;-91
2024/01/12 06:13:04;;;;;;;;;0.00;0.00;;;;;4.74;100.00;103014.84;6157502;22;45351;-91
2024/01/12 06:15:30;;;;;;;;;0.00;0.00;;;;;4.77;100.00;103018.38;6155683;23;67038;-91
2024/01/12 06:17:57;;;;;;;;;0.00;0.00;;;;;4.82;100.00;103023.69;6179867;23;67648;-89
2024/01/12 06:20:22;;;;;;;;;0.00;0.00;;;;;4.82;100.00;103023.69;6182344;22;45230;-90
2024/01/12 06:22:48;;;;;;;;;0.00;0.00;;;;;4.83;100.00;103020.28;6182319;23;45460;-90
2024/01/12 06:25:13;;;;;;;;;0.00;0.00;;;;;4.83;100.00;103028.91;6207134;22;65171;-90
2024/01/12 06:27:41;;;;;;;;;0.00;0.00;;;;;4.87;100.00;103026.38;6181825;23;46289;-91
2024/01/12 06:30:07;;;;;;;;;0.00;0.00;;;;;4.87;100.00;103031.56;6208220;22;45313;-91
2024/01/12 06:32:32;;;;;;;;;0.00;0.00;;;;;4.85;100.00;103027.22;6208733;22;45324;-91
2024/01/12 06:34:58;;;;;;;;;0.00;0.00;;;;;4.83;100.00;103028.91;6206909;22;68698;-90
2024/01/12 06:37:23;;;;;;;;;0.00;0.00;;;;;4.83;100.00;103034.06;6180779;23;75640;-91
2024/01/12 06:39:49;;;;;;;;;0.33;0.33;;;;;4.77;100.00;103025.22;6207745;23;73103;-90
2024/01/12 06:42:15;;;;;;;;;0.00;0.00;;;;;4.72;100.00;103022.53;6182011;23;45239;-91
2024/01/12 06:44:43;;;;;;;;;1.00;1.00;;;;;4.72;100.00;103024.19;6207425;22;45273;-90
2024/01/12 06:47:08;;;;;;;;;1.00;1.00;;;;;4.73;100.00;103023.38;6208421;22;46196;-92
2024/01/12 06:49:34;;;;;;;;;0.00;0.00;;;;;4.78;100.00;103034.75;6181641;23;45358;-89
2024/01/12 06:51:59;;;;;;;;;0.00;0.00;;;;;4.76;100.00;103026.94;6156577;23;45281;-89
2024/01/12 06:54:24;;;;;;;;;0.00;0.00;;;;;4.76;100.00;103029.53;6179963;23;65095;-89
2024/01/12 06:56:52;;;;;;;;;0.00;0.00;;;;;4.78;100.00;103033.03;6180926;23;48860;-92
2024/01/12 06:59:18;;;;;;;;;1.00;1.00;;;;;4.78;100.00;103034.75;6207631;23;45305;-92
2024/01/12 07:01:43;;;;;;;;;0.00;0.00;;;;;4.84;100.00;103027.19;6181747;22;45220;-94
2024/01/12 07:07:53;;;;;;;;;;;;;;;;;;;;;
2024/01/12 07:10:33;;;;;;;;;;;;;;;;;;;;;
2024/01/12 07:12:59;;;;;;;;;0.00;0.00;;;;;4.75;100.00;103029.47;6204740;22;69219;-91
2024/01/12 07:15:24;;;;;;;;;0.00;0.00;;;;;4.78;100.00;103029.56;6161511;22;55874;-88
2024/01/12 07:17:53;;;;;;;;;1.00;0.00;;;;;4.79;100.00;103039.94;6185656;22;57153;-91
2024/01/12 07:20:18;;;;;;;;;0.00;0.00;;;;;4.74;100.00;103031.19;6211869;22;45372;-91
2024/01/12 07:22:45;;;;;;;;;0.00;0.00;;;;;4.78;100.00;103040.75;6186974;22;45321;-89
2024/01/12 07:25:11;;;;;;;;;0.00;0.00;;;;;4.77;100.00;103038.13;6187084;22;45211;-90
2024/01/12 07:27:37;;;;;;;;;0.00;0.00;;;;;4.79;100.00;103047.69;6211382;22;46483;-91
2024/01/12 07:30:03;;;;;;;;;2.25;0.00;;;;;4.77;100.00;103036.44;6211906;22;45275;-92
2024/01/12 07:32:29;;;;;;;;;0.00;0.00;;;;;4.81;100.00;103047.72;6212708;22;45351;-90
2024/01/12 07:34:54;;;;;;;;;0.00;0.00;;;;;4.81;100.00;103047.72;6162094;22;51408;-90
2024/01/12 07:37:22;;;;;;;;;1.00;1.00;;;;;4.80;100.00;103041.69;6185659;22;63528;-89
2024/01/12 07:39:47;;;;;;;;;0.50;0.50;;;;;4.78;100.00;103039.91;6161408;22;45273;-89
2024/01/12 07:42:12;;;;;;;;;0.00;0.00;;;;;4.85;100.00;103045.28;6186630;22;45429;-90
2024/01/12 07:44:38;;;;;;;;;1.00;1.00;;;;;4.83;100.00;103046.09;6208821;22;45214;-89
2024/01/12 07:47:03;;;;;;;;;0.00;0.00;;;;;4.80;100.00;103046.84;6182644;22;46937;-91
2024/01/12 07:49:29;;;;;;;;;0.50;0.50;;;;;4.83;100.00;103048.66;6157640;22;45213;-94
2024/01/12 07:51:54;;;;;;;;;6.00;6.00;;;;;4.81;100.00;103047.72;6181898;22;62523;-94
2024/01/12 07:54:19;;;;;;;;;0.00;0.00;;;;;4.79;100.00;103042.53;6181618;22;61310;-94
2024/01/12 07:56:45;;;;;;;;;0.00;0.00;;;;;4.79;100.00;103046.78;6156733;22;61005;-94
2024/01/12 07:59:13;;;;;;;;;0.00;0.00;;;;;4.83;100.00;103048.66;6182811;22;45386;-93
2024/01/12 08:01:40;;;;;;;;;0.00;0.00;;;;;4.81;100.00;103033.13;6208410;22;45285;-93
2024/01/12 08:04:06;;;;;;;;;3.00;3.00;;;;;4.83;100.00;103051.25;6182190;22;45377;-94
2024/01/12 08:06:31;;;;;;;;;0.00;0.00;;;;;4.81;100.00;103045.13;6153412;22;47244;-93
2024/01/12 08:08:57;;;;;;;;;0.33;0.33;;;;;4.83;100.00;103044.38;6175537;22;56355;-94
2024/01/12 08:11:23;;;;;;;;;0.00;0.00;;;;;4.86;100.00;103048.75;6180233;22;45436;-93
2024/01/12 08:13:48;;;;;;;;;0.00;0.00;;;;;4.89;100.00;103040.25;6182291;22;45407;-94
2024/01/12 08:16:13;;;;;;;;;0.00;0.00;;;;;4.87;100.00;103041.88;6180722;22;71230;-93
2024/01/12 08:18:39;;;;;;;;;1.00;1.00;;;;;4.93;100.00;103039.50;6156709;22;62370;-93
2024/01/12 08:21:04;;;;;;;;;0.00;0.00;;;;;4.97;100.00;103042.22;6182092;22;45717;-93
2024/01/12 08:23:29;;;;;;;;;0.00;0.00;;;;;4.85;100.00;103021.22;6155700;22;45272;-91
2024/01/12 08:25:55;;;;;;;;;0.00;0.00;;;;;4.95;100.00;103027.53;6179968;22;62447;-94
2024/01/12 08:28:20;;;;;;;;;3.00;3.00;;;;;4.97;100.00;103034.47;6182241;22;45180;-91
2024/01/12 08:30:45;;;;;;;;;0.00;0.00;;;;;4.89;100.00;103029.91;6181176;22;52919;-92
2024/01/12 08:33:11;;;;;;;;;0.00;0.00;;;;;5.00;100.00;103031.13;6207764;22;59781;-91
2024/01/12 08:35:36;;;;;;;;;0.00;0.00;;;;;5.05;100.00;103026.97;6208195;22;47064;-91
2024/01/12 08:38:02;;;;;;;;;0.00;0.00;;;;;5.03;100.00;103038.94;6182451;22;45234;-90
2024/01/12 08:40:27;;;;;;;;;0.00;0.00;;;;;5.05;100.00;103039.88;6208941;22;45225;-91
2024/01/12 08:42:53;;;;;;;;;0.00;0.00;;;;;5.02;100.00;103038.06;6157588;22;47491;-91
2024/01/12 08:45:18;;;;;;;;;0.00;0.00;;;;;5.07;100.00;103043.41;6183221;22;45259;-92
2024/01/12 08:47:44;;;;;;;;;0.00;0.00;;;;;5.01;100.00;103033.75;6157135;22;45255;-89
2024/01/12 08:50:15;;;;;;;;;0.00;0.00;;;;;5.01;100.00;103031.19;6156163;22;69362;-91
2024/01/12 08:52:40;;;;;;;;;0.00;0.00;;;;;4.97;100.00;103026.72;6208076;22;45098;-90
2024/01/12 08:55:09;;;;;;;;;0.00;0.00;;;;;4.99;100.00;103035.38;6157518;22;47009;-86
2024/01/12 08:57:35;;;;;;;;;0.00;0.00;;;;;5.03;100.00;103041.53;6183814;22;45317;-90
2024/01/12 09:00:03;;;;;;;;;0.00;0.00;;;;;5.02;100.00;103050.13;6158820;22;45407;-91
2024/01/12 09:02:28;;;;;;;;;1.50;1.50;;;;;5.02;100.00;103044.94;6213290;22;45500;-88
2024/01/12 09:05:04;;;;;;;;;0.00;0.00;;;;;4.98;100.00;103038.81;6183569;22;47199;-92
2024/01/12 09:07:29;;;;;;;;;1.00;1.00;;;;;4.99;100.00;103039.69;6157083;22;45671;-93
2024/01/12 09:09:57;;;;;;;;;0.00;0.00;;;;;5.01;100.00;103050.94;6179884;22;45298;-92
2024/01/12 09:12:23;;;;;;;;;0.00;0.00;;;;;5.03;100.00;103050.16;6181188;22;45546;-89
2024/01/12 09:14:48;;;;;;;;;1.00;1.00;;;;;5.02;100.00;103052.69;6156691;22;47033;-89
2024/01/12 09:17:44;;;;;;;;;0.00;0.00;;;;;5.04;100.00;103054.50;6180600;22;49746;-91
2024/01/12 09:20:10;;;;;;;;;0.00;0.00;;;;;5.05;100.00;103065.69;6183637;22;45563;-90
2024/01/12 09:22:35;;;;;;;;;0.00;0.00;;;;;5.04;100.00;103051.03;6182178;22;45809;-92
2024/01/12 09:25:01;;;;;;;;;0.67;0.67;;;;;5.08;100.00;103058.03;6155025;22;61538;-91
2024/01/12 09:27:26;;;;;;;;;0.00;0.00;;;;;5.10;100.00;103055.50;6154849;22;67929;-92
2024/01/12 09:29:52;;;;;;;;;0.50;0.50;;;;;5.10;100.00;103061.53;6157684;22;58009;-92
2024/01/12 09:32:17;;;;;;;;;0.00;0.00;;;;;5.11;100.00;103059.84;6184262;22;45272;-92
2024/01/12 09:34:43;;;;;;;;;0.00;0.00;;;;;5.12;100.00;103059.88;6183556;22;47156;-91
2024/01/12 09:37:08;;;;;;;;;0.00;0.00;;;;;5.13;100.00;103068.53;6157127;22;46410;-92
2024/01/12 09:39:33;;;;;;;;;0.00;0.00;;;;;5.14;100.00;103072.84;6180936;22;59470;-91
2024/01/12 09:42:02;;;;;;;;;0.00;0.00;;;;;5.15;100.00;103088.38;6208221;22;45226;-92
2024/01/12 09:44:28;;;;;;;;;0.00;0.00;;;;;5.15;100.00;103079.78;6181277;22;46337;-91
2024/01/12 09:46:58;;;;;;;;;0.00;0.00;;;;;5.16;100.00;103085.00;6182119;22;45306;-92
2024/01/12 09:49:28;;;;;;;;;0.00;0.00;;;;;5.15;100.00;103082.34;6156453;22;45212;-92
2024/01/12 09:51:54;;;;;;;;;0.00;0.00;;;;;5.15;100.00;103090.09;6207804;22;45203;-92
2024/01/12 09:54:20;;;;;;;;;0.00;0.00;;;;;5.13;100.00;103084.88;6180992;22;47094;-92
2024/01/12 09:56:45;;;;;;;;;0.00;0.00;;;;;5.17;100.00;103093.59;6181016;22;67569;-91
2024/01/12 09:59:12;;;;;;;;;0.00;0.00;;;;;5.15;100.00;103097.84;6181866;22;45403;-91
2024/01/12 10:01:41;;;;;;;;;0.00;0.00;;;;;5.13;100.00;103096.94;6208204;22;45399;-94
2024/01/12 10:04:06;;;;;;;;;0.00;0.00;;;;;5.14;100.00;103104.69;6207673;22;46563;-93
2024/01/12 10:06:32;;;;;;;;;0.00;0.00;;;;;5.12;100.00;103095.16;6180749;22;56436;-89
2024/01/12 10:08:58;;;;;;;;;0.00;0.00;;;;;5.12;100.00;103095.16;6181702;23;45235;-91
2024/01/12 10:11:23;;;;;;;;;0.00;0.00;;;;;5.14;100.00;103104.69;6181125;23;45524;-92
2024/01/12 10:13:49;;;;;;;;;0.00;0.00;;;;;5.14;100.00;103104.69;6181720;23;47413;-92
2024/01/12 10:16:16;;;;;;;;;0.00;0.00;;;;;5.15;100.00;103105.59;6181873;23;45346;-91
2024/01/12 10:18:42;;;;;;;;;0.00;0.00;;;;;5.13;100.00;103102.97;6208421;23;45268;-92
2024/01/12 10:21:08;;;;;;;;;0.25;0.25;;;;;5.19;100.00;103112.59;6180992;22;45241;-92
2024/01/12 10:23:34;;;;;;;;;0.00;0.00;;;;;5.18;100.00;103118.59;6181384;23;45597;-92
2024/01/12 10:26:00;;;;;;;;;0.00;0.00;;;;;5.18;100.00;103119.47;6156472;22;45240;-91
2024/01/12 10:28:33;;;;;;;;;1.00;1.00;;;;;5.17;100.00;103116.84;6182362;23;45259;-92
2024/01/12 10:31:04;;;;;;;;;0.00;0.00;;;;;5.16;100.00;103120.25;6208179;23;45341;-93
2024/01/12 10:33:30;;;;;;;;;1.00;1.00;;;;;5.13;100.00;103115.88;6181288;23;46371;-94
2024/01/12 10:36:05;;;;;;;;;0.00;0.00;;;;;5.12;100.00;103124.44;6180037;23;69016;-92
2024/01/12 10:38:33;;;;;;;;;0.00;0.00;;;;;5.14;100.00;103121.91;6183233;22;45344;-93
2024/01/12 10:40:59;;;;;;;;;0.00;0.00;;;;;5.15;100.00;103118.50;6158410;22;45233;-93
2024/01/12 10:43:26;;;;;;;;;0.00;0.00;;;;;5.15;100.00;103119.38;6183344;22;46267;-94
2024/01/12 10:45:57;;;;;;;;;0.25;0.25;;;;;5.16;100.00;103115.06;6183577;22;45425;-94
2024/01/12 10:48:24;;;;;;;;;1.25;1.25;;;;;5.16;100.00;103113.41;6157921;22;45309;-93
2024/01/12 10:50:54;;;;;;;;;2.00;2.00;;;;;5.15;100.00;103110.75;6183652;22;45338;-93
2024/01/12 10:53:55;;;;;;;;;0.25;0.25;;;;;5.16;100.00;103112.50;6182871;22;48354;-93
2024/01/12 10:56:21;;;;;;;;;0.00;0.00;;;;;5.17;100.00;103107.38;6158178;22;45666;-93
2024/01/12 10:58:48;;;;;;;;;0.75;0.75;;;;;5.15;100.00;103103.00;6158050;22;48623;-93
2024/01/12 11:01:14;;;;;;;;;0.00;0.00;;;;;5.10;100.00;103105.44;6182827;22;45299;-93
2024/01/12 11:03:39;;;;;;;;;0.00;0.00;;;;;5.13;100.00;103099.50;6157785;22;48046;-93
2024/01/12 11:06:06;;;;;;;;;0.00;0.00;;;;;5.12;100.00;103106.34;6182443;22;45396;-93
2024/01/12 11:08:32;;;;;;;;;0.00;0.00;;;;;5.12;100.00;103101.19;6183124;22;45360;-93
2024/01/12 11:10:59;;;;;;;;;0.00;0.00;;;;;5.13;100.00;103102.09;6182975;22;45429;-93
2024/01/12 11:13:25;;;;;;;;;0.00;0.00;;;;;5.13;100.00;103087.47;6156413;22;60218;-94
2024/01/12 11:15:52;;;;;;;;;0.00;0.00;;;;;5.16;100.00;103090.16;6158339;22;45227;-93
2024/01/12 11:18:19;;;;;;;;;3.00;3.00;;;;;5.15;100.00;103084.94;6156948;22;45290;-91
2024/01/12 11:20:45;;;;;;;;;2.00;2.00;;;;;5.34;100.00;103081.22;6183182;22;45266;-92
2024/01/12 11:23:10;;;;;;;;;0.00;0.00;;;;;5.23;100.00;103083.47;6183505;22;47132;-92
2024/01/12 11:25:36;;;;;;;;;0.00;0.00;;;;;5.20;100.00;103070.44;6183107;22;45376;-92